Time;durP1;ratioP1;P1;durP2;ratioP2;P2;SDS_P1;SDS_P2;PMS_P1;PMS_P2;Temp;Humidity;BMP_temperature;BMP_pressure;BME280_temperature;BME280_humidity;BME280_pressure;Samples;Min_cycle;Max_cycle;Signal;HPM_P1;HPM_P2
2023/04/07 00:00:25;;;;;;;17.67;8.90;;;;;;;4.94;100.00;93862.59;4990211;28;20054;-69
2023/04/07 00:02:52;;;;;;;16.55;9.00;;;;;;;4.94;100.00;93859.88;4990592;28;20454;-68
2023/04/07 00:05:19;;;;;;;16.73;8.80;;;;;;;4.98;100.00;93858.75;4989974;28;20568;-67
2023/04/07 00:07:46;;;;;;;16.98;9.43;;;;;;;4.95;100.00;93856.00;4969883;28;20042;-69
2023/04/07 00:10:21;;;;;;;17.48;9.27;;;;;;;4.90;100.00;93861.81;4987722;28;20050;-69
2023/04/07 00:12:48;;;;;;;16.50;8.93;;;;;;;4.65;100.00;93857.00;4990022;28;20054;-70
2023/04/07 00:15:15;;;;;;;17.15;9.60;;;;;;;4.53;100.00;93847.22;4989379;28;20050;-70
2023/04/07 00:17:42;;;;;;;18.08;9.80;;;;;;;4.63;100.00;93847.66;4988431;28;21558;-70
2023/04/07 00:20:09;;;;;;;16.08;8.95;;;;;;;4.55;100.00;93846.84;4990609;28;20601;-66
2023/04/07 00:22:36;;;;;;;17.02;9.48;;;;;;;4.50;100.00;93845.25;4977090;28;20096;-70
2023/04/07 00:25:03;;;;;;;18.13;9.30;;;;;;;4.50;100.00;93837.09;4990263;28;20043;-68
2023/04/07 00:27:30;;;;;;;18.17;10.10;;;;;;;4.58;100.00;93840.66;4989493;28;20055;-70
2023/04/07 00:29:56;;;;;;;17.33;9.75;;;;;;;4.66;100.00;93831.38;4990144;28;20460;-70
2023/04/07 00:32:23;;;;;;;17.75;9.70;;;;;;;4.60;100.00;93825.50;4989230;28;20096;-70
2023/04/07 00:34:50;;;;;;;18.67;10.25;;;;;;;4.53;100.00;93827.44;4990028;28;20054;-67
2023/04/07 00:37:18;;;;;;;17.37;9.47;;;;;;;4.49;100.00;93824.69;4989448;28;20444;-70
2023/04/07 00:39:45;;;;;;;18.15;10.50;;;;;;;4.52;100.00;93820.44;4989366;28;20318;-69
2023/04/07 00:42:12;;;;;;;18.17;10.35;;;;;;;4.62;100.00;93808.06;4983317;28;20064;-70
2023/04/07 00:44:39;;;;;;;21.77;10.75;;;;;;;4.48;100.00;93806.03;4981276;28;20050;-70
2023/04/07 00:47:06;;;;;;;21.80;11.63;;;;;;;4.70;100.00;93805.00;4989569;28;20058;-70
2023/04/07 00:49:32;;;;;;;23.80;12.90;;;;;;;4.72;100.00;93796.47;4989074;28;20050;-67
2023/04/07 00:52:00;;;;;;;17.15;9.80;;;;;;;4.57;100.00;93793.69;4989666;28;20415;-70
2023/04/07 00:54:29;;;;;;;18.00;9.85;;;;;;;4.51;100.00;93789.75;4989127;28;20513;-70
2023/04/07 00:56:56;;;;;;;19.25;9.68;;;;;;;4.57;100.00;93790.19;4989699;28;20507;-68
2023/04/07 00:59:23;;;;;;;20.20;9.57;;;;;;;4.51;100.00;93791.72;4969873;28;20092;-70
2023/04/07 01:02:12;;;;;;;16.63;9.43;;;;;;;4.58;100.00;93792.50;4989712;28;20446;-70
2023/04/07 01:05:13;;;;;;;18.25;9.27;;;;;;;4.68;100.00;93799.16;4989126;28;20054;-69
2023/04/07 01:07:55;;;;;;;17.65;9.20;;;;;;;4.63;100.00;93791.38;4988227;28;20042;-67
2023/04/07 01:10:32;;;;;;;16.08;8.60;;;;;;;4.67;100.00;93792.19;4988895;28;20050;-70
2023/04/07 01:13:14;;;;;;;17.20;9.32;;;;;;;4.67;100.00;93781.31;4983140;28;20058;-70
2023/04/07 01:15:47;;;;;;;21.87;12.20;;;;;;;4.64;100.00;93781.28;4989080;28;20042;-67
2023/04/07 01:18:21;;;;;;;20.55;10.60;;;;;;;4.72;100.00;93780.94;4989297;28;20046;-70
2023/04/07 01:20:50;;;;;;;20.45;9.60;;;;;;;4.60;100.00;93783.97;4995456;28;20842;-69
2023/04/07 01:23:30;;;;;;;16.65;9.20;;;;;;;4.54;100.00;93780.84;4988686;28;20061;-68
2023/04/07 01:26:16;;;;;;;17.52;9.27;;;;;;;4.63;100.00;93775.06;4988996;28;20046;-69
2023/04/07 01:28:42;;;;;;;18.17;9.27;;;;;;;4.68;100.00;93779.38;4988092;28;21657;-70
2023/04/07 01:31:11;;;;;;;18.33;9.48;;;;;;;4.61;100.00;93769.25;4968202;28;20050;-68
2023/04/07 01:33:42;;;;;;;18.02;9.20;;;;;;;4.59;100.00;93769.63;4980609;28;20046;-69
2023/04/07 01:36:11;;;;;;;15.65;8.52;;;;;;;4.63;100.00;93772.34;4955414;28;20046;-70
2023/04/07 01:38:38;;;;;;;17.75;9.20;;;;;;;4.64;100.00;93762.25;4988557;28;20491;-71
2023/04/07 01:41:08;;;;;;;17.10;9.50;;;;;;;4.63;100.00;93764.22;4988511;28;20050;-70
2023/04/07 01:43:37;;;;;;;17.42;9.05;;;;;;;4.65;100.00;93764.59;4988531;28;20916;-69
2023/04/07 01:46:04;;;;;;;16.58;8.98;;;;;;;4.60;100.00;93760.28;4988543;28;20038;-70
2023/04/07 01:48:32;;;;;;;58.83;29.90;;;;;;;4.66;100.00;93755.28;4988277;28;20066;-69
2023/04/07 01:50:59;;;;;;;26.55;13.98;;;;;;;4.66;100.00;93755.28;4987709;28;20487;-68
2023/04/07 01:53:26;;;;;;;19.43;10.10;;;;;;;4.68;100.00;93752.19;4987905;28;20556;-69
2023/04/07 01:55:53;;;;;;;16.15;9.15;;;;;;;4.70;100.00;93753.34;4988427;28;20050;-70
2023/04/07 01:58:20;;;;;;;18.05;9.60;;;;;;;4.52;100.00;93747.81;4988133;28;20072;-69
2023/04/07 02:00:47;;;;;;;19.73;9.63;;;;;;;4.47;100.00;93748.22;4988635;28;20054;-70
2023/04/07 02:03:21;;;;;;;18.33;9.48;;;;;;;4.28;100.00;93751.97;4988542;28;20042;-71
2023/04/07 02:05:54;;;;;;;16.37;8.93;;;;;;;4.16;100.00;93750.34;4988014;28;20481;-70
2023/04/07 02:08:23;;;;;;;17.38;9.77;;;;;;;4.24;100.00;93748.44;4987941;28;20069;-69
2023/04/07 02:10:51;;;;;;;15.80;8.82;;;;;;;4.38;100.00;93747.75;4988470;28;20045;-70
2023/04/07 02:13:19;;;;;;;16.25;9.40;;;;;;;4.46;100.00;93735.75;4970233;28;20046;-69
2023/04/07 02:15:48;;;;;;;17.52;8.90;;;;;;;4.47;100.00;93733.84;4973986;28;20109;-69
2023/04/07 02:18:17;;;;;;;17.30;8.90;;;;;;;4.52;100.00;93731.53;4967413;28;20105;-59
2023/04/07 02:20:45;;;;;;;18.25;9.82;;;;;;;4.54;100.00;93729.19;4981624;28;20170;-70
2023/04/07 02:23:11;;;;;;;18.70;9.57;;;;;;;4.55;100.00;93728.06;4988429;28;20043;-71
2023/04/07 02:25:38;;;;;;;16.80;9.38;;;;;;;4.58;100.00;93724.56;4987656;28;20527;-68
2023/04/07 02:28:06;;;;;;;18.27;10.20;;;;;;;4.62;100.00;93719.16;4988221;28;20243;-69
2023/04/07 02:30:33;;;;;;;16.67;9.27;;;;;;;4.64;100.00;93716.06;4987887;28;20046;-68
2023/04/07 02:33:00;;;;;;;16.25;9.07;;;;;;;4.56;100.00;93709.81;4988218;28;20418;-69
2023/04/07 02:35:27;;;;;;;16.67;9.27;;;;;;;4.45;100.00;93715.19;4987803;28;20056;-70
2023/04/07 02:37:53;;;;;;;17.33;9.52;;;;;;;4.37;100.00;93717.09;4988445;28;20631;-69
2023/04/07 02:40:20;;;;;;;16.05;8.98;;;;;;;4.34;100.00;93715.13;4987690;28;20053;-70
2023/04/07 02:42:47;;;;;;;17.07;9.13;;;;;;;4.34;100.00;93711.66;4986882;28;20781;-70
2023/04/07 02:45:14;;;;;;;17.40;8.82;;;;;;;4.31;100.00;93710.47;4988444;28;20446;-69
2023/04/07 02:47:41;;;;;;;16.27;9.23;;;;;;;4.39;100.00;93705.88;5002975;28;20611;-67
2023/04/07 02:50:08;;;;;;;15.77;8.45;;;;;;;4.43;100.00;93708.56;4988476;28;20058;-69
2023/04/07 02:52:35;;;;;;;16.42;8.77;;;;;;;4.45;100.00;93706.25;4987885;28;20050;-70
2023/04/07 02:55:02;;;;;;;18.30;8.70;;;;;;;4.46;100.00;93705.88;4988384;28;20140;-71
2023/04/07 02:57:29;;;;;;;16.77;9.05;;;;;;;4.44;100.00;93699.28;4987638;28;20515;-69
2023/04/07 02:59:56;;;;;;;17.70;9.15;;;;;;;4.47;100.00;93693.88;4988338;28;20050;-67
2023/04/07 03:02:23;;;;;;;18.15;9.63;;;;;;;3.91;100.00;93706.75;4988929;28;20038;-70
2023/04/07 03:04:52;;;;;;;18.50;9.82;;;;;;;3.94;100.00;93697.06;4991697;28;20418;-69
2023/04/07 03:07:18;;;;;;;18.70;9.70;;;;;;;4.10;100.00;93692.09;4990857;28;20072;-70
2023/04/07 03:09:45;;;;;;;19.02;9.52;;;;;;;4.27;100.00;93693.38;4991487;28;20038;-70
2023/04/07 03:12:12;;;;;;;19.27;9.13;;;;;;;4.36;100.00;93691.06;4981760;28;20078;-69
2023/04/07 03:14:39;;;;;;;21.13;10.27;;;;;;;4.31;100.00;93687.97;4971669;28;20196;-68
2023/04/07 03:17:06;;;;;;;20.20;10.60;;;;;;;4.31;100.00;93685.25;4990355;28;20050;-67
2023/04/07 03:19:32;;;;;;;17.53;9.20;;;;;;;4.23;100.00;93680.94;4990812;28;20490;-69
2023/04/07 03:21:59;;;;;;;17.95;8.98;;;;;;;3.85;100.00;93681.13;4991272;28;20047;-69
2023/04/07 03:24:26;;;;;;;18.35;8.68;;;;;;;3.90;100.00;93672.59;4990789;28;20054;-68
2023/04/07 03:26:52;;;;;;;18.48;8.80;;;;;;;3.97;100.00;93667.22;4991017;28;20108;-69
2023/04/07 03:29:19;;;;;;;17.58;9.23;;;;;;;4.04;100.00;93674.63;4990639;28;20042;-70
2023/04/07 03:31:46;;;;;;;16.67;8.60;;;;;;;4.12;100.00;93672.72;4990871;28;20109;-69
2023/04/07 03:34:13;;;;;;;17.17;9.43;;;;;;;4.10;100.00;93672.34;4990676;28;20089;-68
2023/04/07 03:36:39;;;;;;;18.38;9.93;;;;;;;4.04;100.00;93665.72;4990430;28;20043;-70
2023/04/07 03:39:06;;;;;;;18.42;10.13;;;;;;;4.10;100.00;93678.53;4990870;28;20042;-68
2023/04/07 03:41:33;;;;;;;16.00;8.52;;;;;;;4.18;100.00;93671.22;4990367;28;20403;-67
2023/04/07 03:44:00;;;;;;;17.77;9.27;;;;;;;4.07;100.00;93668.44;4990988;28;20577;-70
2023/04/07 03:46:27;;;;;;;17.77;9.00;;;;;;;3.91;100.00;93676.88;4990451;28;20066;-70
2023/04/07 03:48:54;;;;;;;18.23;9.52;;;;;;;3.97;100.00;93669.94;4990935;28;20439;-71
2023/04/07 03:51:21;;;;;;;17.75;9.93;;;;;;;3.90;100.00;93664.47;4990158;28;20046;-70
2023/04/07 03:53:47;;;;;;;18.55;10.13;;;;;;;4.02;100.00;93657.16;4990629;28;20039;-70
2023/04/07 03:56:15;;;;;;;17.47;9.40;;;;;;;3.85;100.00;93664.84;4994058;28;20044;-69
2023/04/07 03:58:41;;;;;;;17.38;9.55;;;;;;;3.78;100.00;93660.16;5009395;28;20844;-71
2023/04/07 04:01:08;;;;;;;18.23;9.80;;;;;;;3.90;100.00;93652.81;5010124;28;20056;-69
2023/04/07 04:03:35;;;;;;;19.25;9.63;;;;;;;3.62;100.00;93654.19;5009705;28;20514;-70
2023/04/07 04:06:02;;;;;;;17.75;9.90;;;;;;;3.71;100.00;93651.19;5009912;28;20057;-68
2023/04/07 04:08:29;;;;;;;17.07;8.93;;;;;;;3.87;100.00;93648.16;5009492;28;20080;-68
2023/04/07 04:10:56;;;;;;;16.02;8.93;;;;;;;3.96;100.00;93654.81;5008825;28;20056;-66
2023/04/07 04:13:22;;;;;;;19.08;10.18;;;;;;;4.04;100.00;93643.97;4989879;28;20488;-68
2023/04/07 04:15:49;;;;;;;18.13;9.48;;;;;;;4.05;100.00;93638.19;4999217;28;20045;-70
2023/04/07 04:18:16;;;;;;;16.23;9.35;;;;;;;4.11;100.00;93642.09;5009329;28;20107;-69
2023/04/07 04:20:42;;;;;;;18.00;9.47;;;;;;;4.10;100.00;93637.78;5009668;28;20052;-69
2023/04/07 04:23:09;;;;;;;18.40;9.93;;;;;;;4.11;100.00;93649.47;5009685;28;20049;-68
2023/04/07 04:25:38;;;;;;;19.50;10.00;;;;;;;4.11;100.00;93642.09;5009302;28;20107;-69
2023/04/07 04:28:05;;;;;;;19.30;9.60;;;;;;;4.11;100.00;93649.47;5009461;28;20069;-66
2023/04/07 04:30:32;;;;;;;16.40;9.07;;;;;;;3.97;100.00;93650.94;5009043;28;20068;-70
2023/04/07 04:32:59;;;;;;;17.47;8.97;;;;;;;3.39;100.00;93646.28;5009176;28;20052;-68
2023/04/07 04:35:26;;;;;;;17.00;9.13;;;;;;;3.12;100.00;93635.63;5008953;28;20053;-69
2023/04/07 04:37:53;;;;;;;18.45;9.50;;;;;;;2.93;100.00;93636.63;5009529;28;20486;-70
2023/04/07 04:40:20;;;;;;;17.58;9.57;;;;;;;3.15;100.00;93634.09;5008758;28;20050;-67
2023/04/07 04:42:47;;;;;;;19.38;10.57;;;;;;;3.26;100.00;93639.59;5009259;28;20099;-67
2023/04/07 04:45:13;;;;;;;18.27;9.47;;;;;;;3.23;100.00;93633.00;5009307;28;20072;-71
2023/04/07 04:47:42;;;;;;;22.25;11.00;;;;;;;3.29;100.00;93625.31;4987933;28;20046;-68
2023/04/07 04:50:09;;;;;;;22.05;11.32;;;;;;;3.17;100.00;93629.09;4999975;28;20042;-70
2023/04/07 04:52:37;;;;;;;22.92;11.02;;;;;;;3.04;100.00;93631.31;5008827;28;20050;-70
2023/04/07 04:55:04;;;;;;;22.95;11.40;;;;;;;3.00;100.00;93633.22;5009435;28;20042;-70
2023/04/07 04:57:30;;;;;;;21.20;10.80;;;;;;;2.85;100.00;93634.22;5008825;28;20044;-69
2023/04/07 04:59:57;;;;;;;22.67;10.88;;;;;;;2.76;100.00;93640.72;5009417;28;20054;-68
2023/04/07 05:02:23;;;;;;;20.73;11.07;;;;;;;2.94;100.00;93634.72;5008538;28;20057;-70
2023/04/07 05:04:50;;;;;;;20.88;10.95;;;;;;;2.76;100.00;93640.72;5009154;28;20605;-69
2023/04/07 05:07:17;;;;;;;21.27;10.27;;;;;;;2.93;100.00;93638.56;5008318;28;20137;-69
2023/04/07 05:09:44;;;;;;;19.63;10.23;;;;;;;3.10;100.00;93627.09;5009099;28;20038;-69
2023/04/07 05:12:10;;;;;;;18.30;9.40;;;;;;;3.20;100.00;93620.97;5008615;28;20044;-70
2023/04/07 05:14:37;;;;;;;19.55;10.15;;;;;;;3.24;100.00;93620.22;5008754;28;20430;-66
2023/04/07 05:17:04;;;;;;;20.50;10.70;;;;;;;3.19;100.00;93615.94;5009045;28;20052;-70
2023/04/07 05:19:31;;;;;;;18.45;10.60;;;;;;;3.26;100.00;93626.03;5008089;28;20042;-70
2023/04/07 05:21:58;;;;;;;20.00;10.57;;;;;;;3.22;100.00;93620.59;5008637;28;20057;-70
2023/04/07 05:24:28;;;;;;;18.05;9.43;;;;;;;3.44;100.00;93624.25;5007979;28;20054;-70
2023/04/07 05:26:55;;;;;;;18.23;10.02;;;;;;;3.54;100.00;93628.97;4987709;28;20042;-70
2023/04/07 05:29:22;;;;;;;19.98;10.27;;;;;;;3.55;100.00;93627.03;5002139;28;20056;-68
2023/04/07 05:31:49;;;;;;;20.33;11.32;;;;;;;3.73;100.00;93635.28;5008463;28;20540;-70
2023/04/07 05:34:16;;;;;;;22.13;11.70;;;;;;;3.98;100.00;93651.72;5007842;28;20049;-67
2023/04/07 05:36:43;;;;;;;22.67;11.90;;;;;;;3.71;100.00;93649.22;5008396;28;20083;-69
2023/04/07 05:39:09;;;;;;;21.70;12.13;;;;;;;2.96;100.00;93656.81;5008604;28;20050;-69
2023/04/07 05:41:36;;;;;;;19.90;10.63;;;;;;;3.54;100.00;93647.97;5008018;28;20050;-68
2023/04/07 05:44:03;;;;;;;19.40;10.38;;;;;;;3.45;100.00;93646.72;5008590;28;20060;-69
2023/04/07 05:46:29;;;;;;;18.47;10.53;;;;;;;3.73;100.00;93636.06;5008044;28;20395;-70
2023/04/07 05:48:56;;;;;;;20.63;11.50;;;;;;;4.11;100.00;93636.66;5008384;28;20046;-69
2023/04/07 05:51:28;;;;;;;25.00;11.60;;;;;;;4.48;100.00;93629.41;5007530;28;20042;-68
2023/04/07 05:53:55;;;;;;;21.15;11.35;;;;;;;4.62;100.00;93626.75;5008286;28;20046;-67
2023/04/07 05:56:21;;;;;;;19.48;11.02;;;;;;;4.52;100.00;93630.97;5007984;28;20243;-69
2023/04/07 05:58:48;;;;;;;20.43;10.97;;;;;;;4.65;100.00;93623.25;5008184;28;20076;-70
2023/04/07 06:01:15;;;;;;;24.30;11.57;;;;;;;4.91;100.00;93624.06;5008066;28;20061;-70
2023/04/07 06:03:41;;;;;;;22.38;12.48;;;;;;;4.98;100.00;93629.53;5007293;28;21644;-71
2023/04/07 06:06:09;;;;;;;19.60;10.90;;;;;;;4.94;100.00;93634.19;5008045;28;20038;-66
2023/04/07 06:08:35;;;;;;;20.25;11.07;;;;;;;5.00;100.00;93632.63;5007821;28;20379;-70
2023/04/07 06:11:02;;;;;;;34.33;19.73;;;;;;;4.91;100.00;93633.03;5008073;28;20058;-69
2023/04/07 06:13:29;;;;;;;38.90;20.50;;;;;;;5.10;100.00;93634.59;5007596;28;20475;-71
2023/04/07 06:15:55;;;;;;;30.98;18.00;;;;;;;5.31;100.00;93635.75;4990252;28;20042;-70
2023/04/07 06:18:22;;;;;;;23.48;12.43;;;;;;;4.85;100.00;93636.50;5007239;28;20053;-69
2023/04/07 06:20:49;;;;;;;23.13;12.43;;;;;;;4.34;100.00;93630.91;5007815;28;20107;-66
2023/04/07 06:23:15;;;;;;;21.23;11.80;;;;;;;5.09;100.00;93629.53;5001546;28;20046;-65
2023/04/07 06:25:42;;;;;;;21.77;11.93;;;;;;;5.04;100.00;93625.25;4987577;28;20475;-69
2023/04/07 06:28:09;;;;;;;21.42;11.65;;;;;;;5.35;100.00;93621.00;5001092;28;20042;-70
2023/04/07 06:30:36;;;;;;;20.42;11.73;;;;;;;5.70;100.00;93624.09;5007352;28;20054;-64
2023/04/07 06:33:03;;;;;;;20.85;11.93;;;;;;;5.87;100.00;93628.72;5007416;28;20081;-62
2023/04/07 06:35:30;;;;;;;19.57;11.57;;;;;;;5.95;100.00;93632.22;5007251;28;20057;-72
2023/04/07 06:37:57;;;;;;;21.75;11.52;;;;;;;5.98;100.00;93623.28;4993249;28;20038;-73
2023/04/07 06:40:24;;;;;;;20.48;11.40;;;;;;;5.38;100.00;93616.72;5011768;28;20042;-72
2023/04/07 06:42:53;;;;;;;18.65;11.27;;;;;;;5.42;100.00;93620.22;4997149;28;20054;-68
2023/04/07 06:45:20;;;;;;;17.60;10.15;;;;;;;5.45;100.00;93622.16;4974795;28;20038;-69
2023/04/07 06:47:47;;;;;;;15.10;9.20;;;;;;;5.82;100.00;93626.41;4990643;28;20057;-69
2023/04/07 06:50:14;;;;;;;77.35;38.92;;;;;;;6.48;100.00;93627.75;5002867;28;20049;-66
2023/04/07 06:52:40;;;;;;;23.60;13.27;;;;;;;6.79;100.00;93629.56;5010189;28;20046;-62
2023/04/07 06:55:07;;;;;;;34.95;17.98;;;;;;;7.33;100.00;93633.91;5011227;28;20056;-67
2023/04/07 06:57:34;;;;;;;26.20;14.80;;;;;;;7.02;100.00;93630.97;5010718;28;20072;-68
2023/04/07 07:00:01;;;;;;;38.13;23.17;;;;;;;6.70;100.00;93631.97;5011072;28;20108;-69
2023/04/07 07:02:27;;;;;;;52.72;30.15;;;;;;;6.78;100.00;93632.69;5010269;28;20108;-66
2023/04/07 07:04:54;;;;;;;22.13;13.38;;;;;;;6.84;100.00;93624.84;5011276;28;20445;-69
2023/04/07 07:07:21;;;;;;;36.85;22.58;;;;;;;7.16;100.00;93628.19;5010715;28;20552;-68
2023/04/07 07:09:48;;;;;;;25.55;14.95;;;;;;;7.46;100.00;93626.75;5010118;28;20042;-67
2023/04/07 07:12:16;;;;;;;19.83;12.47;;;;;;;7.82;100.00;93615.53;5000621;28;20459;-70
2023/04/07 07:14:43;;;;;;;19.70;11.80;;;;;;;7.89;100.00;93612.75;4983321;28;20602;-71
2023/04/07 07:17:10;;;;;;;20.80;12.27;;;;;;;8.04;100.00;93615.31;4991475;28;20047;-71
2023/04/07 07:19:36;;;;;;;21.20;12.75;;;;;;;8.16;100.00;93610.09;4973345;28;20042;-69
2023/04/07 07:22:03;;;;;;;19.23;12.07;;;;;;;8.27;100.00;93614.66;4964775;28;20050;-69
2023/04/07 07:24:32;;;;;;;17.07;10.17;;;;;;;8.55;100.00;93619.06;4973571;28;20088;-68
2023/04/07 07:27:01;;;;;;;17.25;11.07;;;;;;;8.67;100.00;93615.00;4990470;28;20424;-68
2023/04/07 07:29:28;;;;;;;17.48;10.85;;;;;;;9.17;100.00;93619.78;4990429;28;20414;-69
2023/04/07 07:31:55;;;;;;;20.63;12.27;;;;;;;9.61;94.77;93615.19;4990739;28;20630;-69
2023/04/07 07:34:22;;;;;;;17.20;10.40;;;;;;;10.34;89.89;93616.28;4989861;28;20050;-71
2023/04/07 07:36:48;;;;;;;35.97;22.07;;;;;;;10.94;85.03;93621.72;4991099;28;20054;-70
2023/04/07 07:39:15;;;;;;;23.63;15.05;;;;;;;11.12;78.79;93618.59;4991536;28;20052;-68
2023/04/07 07:41:42;;;;;;;30.92;21.92;;;;;;;11.52;73.64;93625.94;4990048;28;20670;-71
2023/04/07 07:44:09;;;;;;;19.08;12.75;;;;;;;13.02;67.62;93618.50;4991387;28;20038;-69
2023/04/07 07:46:35;;;;;;;11.70;8.23;;;;;;;13.29;61.09;93617.31;4990784;28;20050;-71
2023/04/07 07:49:04;;;;;;;11.43;8.23;;;;;;;13.10;62.16;93622.59;4989618;28;20483;-63
2023/04/07 07:51:31;;;;;;;11.85;8.30;;;;;;;13.47;63.06;93611.28;4989785;28;20042;-61
2023/04/07 07:53:58;;;;;;;8.05;6.03;;;;;;;14.27;54.05;93613.78;4990734;28;20045;-65
2023/04/07 07:57:03;;;;;;;8.70;6.50;;;;;;;16.75;49.32;93609.75;5061017;28;20413;-60
2023/04/07 07:59:29;;;;;;;10.88;8.00;;;;;;;19.39;41.14;93610.47;5044911;28;20045;-60
2023/04/07 08:01:57;;;;;;;9.25;7.30;;;;;;;21.85;37.62;93600.06;5043602;28;20354;-61
2023/04/07 08:04:23;;;;;;;10.07;8.05;;;;;;;22.80;33.19;93604.66;5044415;28;20047;-61
2023/04/07 08:06:51;;;;;;;8.18;6.53;;;;;;;23.03;32.34;93604.75;5044770;28;20584;-61
2023/04/07 08:09:18;;;;;;;8.23;6.93;;;;;;;20.68;34.81;93606.78;5044610;28;20045;-62
2023/04/07 08:11:57;;;;;;;6.95;5.25;;;;;;;23.73;30.22;93597.47;5048901;28;21164;-61
2023/04/07 08:14:24;;;;;;;7.17;5.47;;;;;;;25.80;27.94;93600.00;5032640;28;20486;-63
2023/04/07 08:16:51;;;;;;;7.05;5.15;;;;;;;26.28;26.66;93601.41;5035859;28;20056;-58
2023/04/07 08:19:18;;;;;;;7.53;5.32;;;;;;;18.62;35.77;93604.50;5035952;28;20039;-61
2023/04/07 08:21:45;;;;;;;6.05;4.53;;;;;;;19.97;34.19;93600.50;5034343;28;20049;-61
2023/04/07 08:24:11;;;;;;;6.93;4.75;;;;;;;17.45;37.84;93595.91;5036867;28;20414;-59
2023/04/07 08:26:38;;;;;;;6.67;4.60;;;;;;;17.08;39.09;93598.81;5034210;28;20053;-60
2023/04/07 08:29:05;;;;;;;8.13;5.45;;;;;;;15.21;42.99;93611.22;5030952;28;20049;-65
2023/04/07 08:31:31;;;;;;;7.43;5.38;;;;;;;15.12;44.49;93603.66;5037169;28;20049;-60
2023/04/07 08:33:58;;;;;;;7.95;5.78;;;;;;;12.87;52.12;93606.34;5013041;28;20499;-60
2023/04/07 08:36:26;;;;;;;8.38;5.90;;;;;;;11.37;60.64;93615.28;5000115;28;20502;-61
2023/04/07 08:38:53;;;;;;;8.80;5.80;;;;;;;12.30;57.25;93603.97;4999930;28;20054;-60
2023/04/07 08:41:32;;;;;;;8.60;5.80;;;;;;;11.10;66.57;93610.00;4997453;28;20123;-62
2023/04/07 08:44:00;;;;;;;8.82;5.78;;;;;;;12.10;62.13;93608.84;4997302;28;20099;-60
2023/04/07 08:46:28;;;;;;;8.70;5.55;;;;;;;12.01;61.27;93612.19;4999073;28;20042;-60
2023/04/07 08:48:56;;;;;;;9.95;6.20;;;;;;;10.99;65.76;93615.75;5001718;28;20704;-60
2023/04/07 08:51:28;;;;;;;8.83;6.23;;;;;;;11.32;66.13;93615.78;5000744;28;20069;-61
2023/04/07 08:54:17;;;;;;;9.70;5.80;;;;;;;10.23;71.61;93618.41;5000534;28;20424;-59
2023/04/07 08:56:44;;;;;;;11.80;6.88;;;;;;;11.22;69.73;93608.56;4999166;28;20874;-66
2023/04/07 08:59:13;;;;;;;9.40;5.80;;;;;;;11.89;65.37;93610.94;4996727;28;20394;-66
2023/04/07 09:01:40;;;;;;;9.32;6.22;;;;;;;12.15;64.13;93611.84;4995887;28;20112;-57
2023/04/07 09:04:08;;;;;;;8.57;5.70;;;;;;;11.28;66.21;93617.84;5000583;28;20053;-56
2023/04/07 09:06:36;;;;;;;8.27;5.47;;;;;;;12.22;63.19;93610.88;4997507;28;20161;-57
2023/04/07 09:09:07;;;;;;;10.30;6.07;;;;;;;10.81;67.52;93618.09;5003807;28;20095;-58
2023/04/07 09:11:36;;;;;;;9.43;5.60;;;;;;;10.32;72.44;93620.63;4998679;28;20048;-58
2023/04/07 09:14:02;;;;;;;8.88;5.40;;;;;;;11.34;68.55;93620.88;5001004;28;20046;-57
2023/04/07 09:16:32;;;;;;;8.20;5.53;;;;;;;12.22;66.15;93619.13;5004236;28;20054;-62
2023/04/07 09:18:59;;;;;;;8.73;5.20;;;;;;;11.38;66.69;93627.06;5003111;28;20050;-64
2023/04/07 09:21:45;;;;;;;8.38;5.43;;;;;;;11.13;70.27;93624.88;5000873;28;20057;-63
2023/04/07 09:24:30;;;;;;;9.85;5.78;;;;;;;11.81;66.19;93620.53;4991511;28;20046;-61
2023/04/07 09:27:17;;;;;;;8.60;5.50;;;;;;;11.42;66.10;93621.47;4989986;28;20526;-73
2023/04/07 09:29:46;;;;;;;9.77;5.40;;;;;;;10.20;72.80;93627.47;4989396;28;20703;-61
2023/04/07 09:32:38;;;;;;;8.50;5.25;;;;;;;11.34;68.54;93623.59;4991092;28;20636;-67
2023/04/07 09:35:05;;;;;;;10.43;5.15;;;;;;;11.19;67.78;93626.69;4987341;28;20046;-58
2023/04/07 09:37:32;;;;;;;7.85;5.05;;;;;;;11.61;65.51;93628.88;4990021;28;20403;-59
2023/04/07 09:40:00;;;;;;;9.65;5.10;;;;;;;11.62;65.82;93618.66;4990309;28;20041;-58
2023/04/07 09:42:31;;;;;;;8.07;4.70;;;;;;;12.19;63.25;93623.53;4986947;28;20064;-59
2023/04/07 09:44:59;;;;;;;7.55;4.40;;;;;;;12.67;59.64;93623.03;4989901;28;20199;-59
2023/04/07 09:47:31;;;;;;;7.25;4.15;;;;;;;13.49;56.42;93611.59;4988352;28;20046;-59
2023/04/07 09:49:58;;;;;;;7.25;4.60;;;;;;;13.84;54.57;93612.44;4986678;28;20045;-59
2023/04/07 09:52:49;;;;;;;7.07;3.92;;;;;;;15.60;49.03;93614.47;4972279;28;20541;-59
2023/04/07 09:55:19;;;;;;;8.50;4.30;;;;;;;15.73;48.53;93608.84;4989356;28;20100;-57
2023/04/07 09:57:48;;;;;;;6.85;4.20;;;;;;;15.80;46.97;93610.56;4987358;28;20046;-58
2023/04/07 10:00:16;;;;;;;9.55;5.43;;;;;;;15.54;47.56;93611.53;4989549;28;20054;-59
2023/04/07 10:02:43;;;;;;;6.22;3.92;;;;;;;14.23;49.74;93618.66;4990412;28;20702;-62
2023/04/07 10:05:10;;;;;;;7.25;3.70;;;;;;;13.98;50.50;93613.94;4987349;28;20049;-58
2023/04/07 10:07:37;;;;;;;7.80;3.90;;;;;;;13.58;50.64;93606.19;4986581;28;20209;-63
2023/04/07 10:10:07;;;;;;;6.07;3.60;;;;;;;13.43;52.57;93613.38;4984862;28;20043;-58
2023/04/07 10:12:37;;;;;;;7.18;3.90;;;;;;;13.70;52.29;93608.19;4984861;28;20598;-59
2023/04/07 10:15:05;;;;;;;6.78;3.90;;;;;;;13.63;52.31;93604.88;4980747;28;20046;-59
2023/04/07 10:17:32;;;;;;;5.80;4.00;;;;;;;12.88;54.85;93616.94;4983269;28;20049;-59
2023/04/07 10:20:01;;;;;;;7.53;3.93;;;;;;;12.82;55.58;93613.16;4983115;28;20411;-58
2023/04/07 10:22:29;;;;;;;6.90;4.40;;;;;;;12.29;57.67;93613.44;4984846;28;20864;-58
2023/04/07 10:25:01;;;;;;;6.30;4.13;;;;;;;12.30;57.19;93616.97;4985293;28;20112;-58
2023/04/07 10:27:36;;;;;;;7.03;4.13;;;;;;;12.27;58.54;93612.31;4984932;28;20060;-59
2023/04/07 10:30:10;;;;;;;8.10;4.35;;;;;;;11.52;60.57;93625.94;4984518;28;20084;-60
2023/04/07 10:32:51;;;;;;;6.87;4.20;;;;;;;11.24;63.45;93622.66;4982422;28;20107;-64
2023/04/07 10:35:19;;;;;;;10.68;4.75;;;;;;;10.92;65.75;93623.34;4982396;28;20038;-58
2023/04/07 10:38:15;;;;;;;8.43;4.72;;;;;;;10.91;66.91;93621.81;4981508;28;20047;-61
2023/04/07 10:40:43;;;;;;;7.95;4.30;;;;;;;10.88;68.87;93622.66;4981372;28;20264;-58
2023/04/07 10:43:10;;;;;;;7.40;4.63;;;;;;;10.77;72.58;93622.91;4983697;28;20046;-58
2023/04/07 10:45:53;;;;;;;10.87;5.33;;;;;;;9.67;79.92;93629.19;4983853;28;20476;-62
2023/04/07 10:48:20;;;;;;;8.25;5.00;;;;;;;9.29;83.78;93626.66;4976671;28;20478;-63
2023/04/07 10:51:06;;;;;;;10.18;6.43;;;;;;;9.17;85.33;93634.25;4981451;28;20073;-58
2023/04/07 10:53:37;;;;;;;10.95;5.63;;;;;;;8.80;90.78;93638.66;4980262;28;20050;-62
2023/04/07 10:56:04;;;;;;;7.65;4.97;;;;;;;8.97;91.85;93636.09;4982236;28;20039;-57
2023/04/07 10:58:32;;;;;;;9.07;5.43;;;;;;;8.97;100.00;93630.63;4978271;28;20046;-65
2023/04/07 11:00:59;;;;;;;8.23;4.93;;;;;;;9.12;98.98;93631.22;4980873;28;20844;-67
2023/04/07 11:03:27;;;;;;;10.98;5.13;;;;;;;9.25;100.00;93640.41;4980091;28;20046;-59
2023/04/07 11:06:07;;;;;;;8.18;4.53;;;;;;;9.34;100.00;93637.91;4965047;28;20054;-57
2023/04/07 11:08:53;;;;;;;8.13;4.93;;;;;;;9.13;100.00;93633.53;4974152;28;20035;-62
2023/04/07 11:11:36;;;;;;;10.13;5.50;;;;;;;8.94;100.00;93634.19;4976655;28;20399;-59
2023/04/07 11:14:03;;;;;;;9.77;5.00;;;;;;;8.53;100.00;93630.41;4978191;28;20112;-57
2023/04/07 11:16:38;;;;;;;8.02;4.43;;;;;;;8.88;100.00;93630.38;4977554;28;20104;-69
2023/04/07 11:19:05;;;;;;;7.68;4.70;;;;;;;8.82;100.00;93632.78;4979940;28;20091;-68
2023/04/07 11:21:32;;;;;;;8.68;4.53;;;;;;;8.67;100.00;93637.69;4976144;28;20042;-59
2023/04/07 11:23:59;;;;;;;7.80;4.80;;;;;;;8.79;100.00;93628.91;4978944;28;20042;-72
2023/04/07 11:26:26;;;;;;;7.82;4.70;;;;;;;8.70;100.00;93634.09;4979503;28;20042;-68
2023/04/07 11:28:54;;;;;;;9.70;5.55;;;;;;;8.57;100.00;93633.88;4980497;28;20043;-73
2023/04/07 11:31:26;;;;;;;7.03;4.38;;;;;;;8.39;100.00;93633.28;4983785;28;20088;-68